Time;durP1;ratioP1;P1;durP2;ratioP2;P2;SDS_P1;SDS_P2;PMS_P1;PMS_P2;Temp;Humidity;BMP_temperature;BMP_pressure;BME280_temperature;BME280_humidity;BME280_pressure;Samples;Min_cycle;Max_cycle;Signal;HPM_P1;HPM_P2
2024/04/23 00:02:03;;;;;;;8.13;2.30;;;;;;;19.47;44.12;101543.98;2275938;77;51490;-76
2024/04/23 00:05:06;;;;;;;3.80;1.92;;;;;;;19.46;44.11;101535.11;2297089;76;51599;-76
2024/04/23 00:08:09;;;;;;;6.40;2.27;;;;;;;19.47;44.10;101539.48;2250974;77;50687;-75
2024/04/23 00:11:11;;;;;;;4.92;1.80;;;;;;;19.47;44.10;101541.30;2301237;76;51379;-76
2024/04/23 00:14:13;;;;;;;7.53;2.25;;;;;;;19.46;44.10;101533.77;2275635;77;51025;-76
2024/04/23 00:17:15;;;;;;;8.73;2.00;;;;;;;19.46;44.10;101538.30;2301108;76;51513;-76
2024/04/23 00:20:17;;;;;;;5.20;1.87;;;;;;;19.45;44.08;101533.44;2301570;76;50363;-76
2024/04/23 00:23:19;;;;;;;6.70;2.02;;;;;;;19.45;44.08;101532.61;2275563;76;49485;-76
2024/04/23 00:26:22;;;;;;;9.55;2.17;;;;;;;19.47;44.09;101527.88;2300049;76;50487;-76
2024/04/23 00:29:24;;;;;;;7.58;2.22;;;;;;;19.45;44.11;101518.67;2301059;76;51395;-76
2024/04/23 00:32:26;;;;;;;6.70;1.95;;;;;;;19.45;44.12;101515.16;2275678;77;51551;-76
2024/04/23 00:35:29;;;;;;;5.15;1.98;;;;;;;19.45;44.11;101513.81;2296596;77;50465;-76
2024/04/23 00:38:31;;;;;;;6.92;2.55;;;;;;;19.44;44.11;101508.09;2301277;76;49521;-77
2024/04/23 00:41:33;;;;;;;5.10;1.90;;;;;;;19.45;44.12;101512.48;2297171;76;50705;-76
2024/04/23 00:44:35;;;;;;;7.08;2.35;;;;;;;19.45;44.11;101503.08;2275712;77;51520;-77
2024/04/23 00:47:37;;;;;;;6.08;1.85;;;;;;;19.44;44.10;101505.41;2275193;76;51137;-77
2024/04/23 00:50:40;;;;;;;5.40;2.00;;;;;;;19.44;44.13;101506.75;2297228;77;51449;-77
2024/04/23 00:53:42;;;;;;;5.30;2.12;;;;;;;19.44;44.10;101508.09;2297310;77;50412;-76
2024/04/23 00:56:44;;;;;;;3.98;1.82;;;;;;;19.44;44.11;101504.07;2275386;77;49601;-76
2024/04/23 00:59:47;;;;;;;5.10;2.00;;;;;;;19.43;44.15;101506.44;2297210;77;50693;-76
2024/04/23 01:02:49;;;;;;;5.42;1.80;;;;;;;19.43;44.17;101499.72;2275804;77;51603;-77
2024/04/23 01:05:51;;;;;;;6.85;1.90;;;;;;;19.44;44.16;101504.91;2297063;77;50674;-77
2024/04/23 01:08:53;;;;;;;3.47;1.80;;;;;;;19.42;44.21;101504.73;2297181;77;51489;-76
2024/04/23 01:11:55;;;;;;;6.08;1.90;;;;;;;19.42;44.22;101502.91;2275552;77;51162;-78
2024/04/23 01:14:57;;;;;;;6.42;2.00;;;;;;;19.42;44.24;101498.89;2297131;77;50489;-76
2024/04/23 01:18:01;;;;;;;5.12;1.90;;;;;;;19.42;44.25;101497.55;2297203;77;50344;-76
2024/04/23 01:21:03;;;;;;;4.35;2.10;;;;;;;19.42;44.27;101502.05;2275859;77;51041;-76
2024/04/23 01:24:08;;;;;;;4.55;1.85;;;;;;;19.40;44.30;101494.19;2297215;76;50679;-76
2024/04/23 01:27:10;;;;;;;;;;;;;;;19.41;44.31;101492.34;2330076;76;50769;-76
2024/04/23 01:30:12;;;;;;;5.08;2.00;;;;;;;19.39;44.36;101498.37;2295698;76;51032;-76
2024/04/23 01:33:15;;;;;;;4.80;1.95;;;;;;;19.41;44.35;101490.99;2295965;76;50859;-77
2024/04/23 01:36:17;;;;;;;3.22;1.70;;;;;;;19.41;44.32;101495.85;2329648;76;50378;-77
2024/04/23 01:39:19;;;;;;;5.55;2.10;;;;;;;19.40;44.31;101487.98;2288133;76;50029;-77
2024/04/23 01:42:21;;;;;;;3.62;1.80;;;;;;;19.42;44.29;101495.34;2329757;76;51440;-77
2024/04/23 01:45:23;;;;;;;5.70;1.62;;;;;;;19.41;44.32;101489.65;2329612;76;50639;-77
2024/04/23 01:48:26;;;;;;;4.55;1.70;;;;;;;19.41;44.34;101486.97;2329920;76;51515;-77
2024/04/23 01:51:28;;;;;;;6.60;2.05;;;;;;;19.40;44.36;101482.62;2329872;76;51597;-76
2024/04/23 01:54:30;;;;;;;3.72;2.10;;;;;;;19.39;44.38;101480.41;2288204;76;52450;-77
2024/04/23 01:57:32;;;;;;;4.37;1.98;;;;;;;19.40;44.36;101481.28;2329554;76;50260;-77
2024/04/23 02:00:34;;;;;;;6.22;1.77;;;;;;;19.40;44.36;101480.77;2329806;76;50330;-77
2024/04/23 02:03:37;;;;;;;4.70;1.82;;;;;;;19.40;44.37;101474.56;2288321;76;49344;-77
2024/04/23 02:06:43;;;;;;;6.97;1.82;;;;;;;19.39;44.45;101474.21;2329625;76;50431;-77
2024/04/23 02:09:46;;;;;;;4.50;1.70;;;;;;;19.40;44.44;101471.88;2328586;76;22491;-76
2024/04/23 02:12:49;;;;;;;3.95;1.80;;;;;;;19.38;44.46;101476.06;2329815;76;50719;-76
2024/04/23 02:15:51;;;;;;;5.60;1.90;;;;;;;19.40;44.42;101483.96;2329571;76;50403;-76
2024/04/23 02:18:53;;;;;;;5.85;1.87;;;;;;;19.39;44.43;101480.92;2288191;76;49606;-76
2024/04/23 02:21:55;;;;;;;3.90;2.02;;;;;;;19.38;44.46;101471.20;2329894;76;50615;-76
2024/04/23 02:24:58;;;;;;;4.92;2.02;;;;;;;19.36;44.47;101465.48;2270340;76;52551;-79
2024/04/23 02:28:00;;;;;;;3.47;1.72;;;;;;;19.37;44.46;101470.38;2288133;76;51052;-77
2024/04/23 02:31:02;;;;;;;3.90;1.70;;;;;;;19.38;44.39;101468.52;2329835;76;51510;-76
2024/04/23 02:34:04;;;;;;;4.35;2.10;;;;;;;19.38;44.43;101477.41;2329895;76;50418;-76
2024/04/23 02:37:06;;;;;;;4.87;1.90;;;;;;;19.36;44.38;101466.83;2329593;76;50370;-76
2024/04/23 02:40:09;;;;;;;2.70;1.80;;;;;;;19.36;44.37;101469.51;2329805;76;50604;-76
2024/04/23 02:43:11;;;;;;;3.35;2.00;;;;;;;19.37;44.35;101469.03;2246402;76;49543;-77
2024/04/23 02:46:14;;;;;;;3.83;1.70;;;;;;;19.36;44.39;101463.31;2329550;76;50295;-77
2024/04/23 02:49:16;;;;;;;2.30;1.60;;;;;;;19.35;44.38;101465.16;2329860;76;50313;-77
2024/04/23 02:52:18;;;;;;;4.03;1.77;;;;;;;19.36;44.38;101460.63;2270446;76;50136;-77
2024/04/23 02:55:20;;;;;;;4.10;1.47;;;;;;;19.34;44.38;101455.45;2295669;76;50046;-77
2024/04/23 02:58:22;;;;;;;3.02;1.85;;;;;;;19.34;44.37;101452.77;2329724;76;50418;-77
2024/04/23 03:01:25;;;;;;;2.65;1.65;;;;;;;19.36;44.34;101456.09;2329800;76;51581;-77
2024/04/23 03:04:27;;;;;;;3.12;1.60;;;;;;;19.34;44.39;101454.11;2270468;76;51501;-76
2024/04/23 03:07:29;;;;;;;4.58;1.85;;;;;;;19.34;44.42;101442.03;2270104;76;51086;-77
2024/04/23 03:10:31;;;;;;;7.15;1.85;;;;;;;19.33;44.43;101443.02;2329880;76;51554;-76
2024/04/23 03:13:34;;;;;;;3.62;1.77;;;;;;;19.33;44.41;101444.36;2296057;76;51543;-77
2024/04/23 03:16:36;;;;;;;3.05;1.60;;;;;;;19.33;44.40;101443.02;2288004;76;49597;-76
2024/04/23 03:19:38;;;;;;;2.70;1.70;;;;;;;19.32;44.40;101445.89;2329967;76;51534;-76
2024/04/23 03:22:40;;;;;;;6.40;2.00;;;;;;;19.33;44.36;101447.05;2288225;76;50657;-76
2024/04/23 03:25:43;;;;;;;8.85;2.42;;;;;;;19.33;44.36;101449.73;2329706;76;50353;-77
2024/04/23 03:28:45;;;;;;;2.47;1.70;;;;;;;19.32;44.36;101445.38;2330000;76;50373;-76
2024/04/23 03:31:47;;;;;;;3.98;2.10;;;;;;;19.31;44.32;101447.70;2270635;76;50170;-76
2024/04/23 03:34:49;;;;;;;3.15;1.85;;;;;;;19.32;44.32;101444.03;2295954;76;51521;-76
2024/04/23 03:37:52;;;;;;;6.53;1.80;;;;;;;19.32;44.31;101444.03;2295697;76;50328;-76
2024/04/23 03:40:54;;;;;;;8.35;2.33;;;;;;;19.32;44.32;101441.35;2288112;76;49691;-76
2024/04/23 03:43:56;;;;;;;4.33;1.67;;;;;;;19.32;44.32;101442.70;2295807;76;50526;-76
2024/04/23 03:46:58;;;;;;;4.47;1.82;;;;;;;19.32;44.31;101442.70;2287977;76;50952;-76
2024/04/23 03:50:00;;;;;;;4.83;1.60;;;;;;;19.31;44.34;101442.34;2329963;76;50698;-77
2024/04/23 03:53:03;;;;;;;3.95;1.90;;;;;;;19.31;44.33;101435.63;2295909;76;51462;-77
2024/04/23 03:56:05;;;;;;;8.53;1.75;;;;;;;19.31;44.34;101436.97;2270260;76;52474;-75
2024/04/23 03:59:07;;;;;;;4.33;1.77;;;;;;;19.31;44.38;101431.61;2270623;76;50355;-75
2024/04/23 04:08:50;;;;;;;3.33;1.82;;;;;;;19.31;44.41;101424.06;2330330;76;24233;-75
2024/04/23 04:11:54;;;;;;;6.25;1.98;;;;;;;19.30;44.43;101422.41;2329877;76;51613;-76
2024/04/23 04:14:56;;;;;;;2.50;1.40;;;;;;;19.29;44.44;101433.65;2329634;76;50315;-76
2024/04/23 04:17:58;;;;;;;3.33;1.75;;;;;;;19.28;44.44;101423.90;2329823;76;50351;-76
2024/04/23 04:21:00;;;;;;;3.42;1.60;;;;;;;19.29;44.45;101417.55;2288166;76;49594;-76
2024/04/23 04:24:02;;;;;;;5.87;1.80;;;;;;;19.28;44.41;101419.87;2295865;76;50635;-76
2024/04/23 04:27:05;;;;;;;8.43;1.70;;;;;;;19.30;44.40;101420.55;2295685;76;50324;-76
2024/04/23 04:30:09;;;;;;;2.67;1.60;;;;;;;19.28;44.39;101418.53;2270437;76;50079;-76
2024/04/23 04:33:11;;;;;;;3.67;1.73;;;;;;;19.29;44.38;101416.69;2330242;76;50013;-75
2024/04/23 04:36:14;;;;;;;5.35;1.82;;;;;;;19.28;44.39;101423.90;2329590;76;50722;-75
2024/04/23 04:39:16;;;;;;;6.42;1.85;;;;;;;19.27;44.39;101424.92;2329924;76;51655;-76
2024/04/23 04:42:18;;;;;;;4.22;1.80;;;;;;;19.27;44.45;101426.27;2329805;76;50286;-76
2024/04/23 04:45:21;;;;;;;5.78;1.77;;;;;;;19.27;44.47;101424.92;2288015;76;49255;-77
2024/04/23 04:48:23;;;;;;;11.40;1.92;;;;;;;19.27;44.51;101431.62;2295926;76;51503;-75
2024/04/23 04:51:25;;;;;;;9.38;1.85;;;;;;;19.27;44.49;101423.58;2329905;76;50359;-76
2024/04/23 04:54:27;;;;;;;4.60;1.62;;;;;;;19.28;44.46;101424.41;2287916;76;51351;-75
2024/04/23 04:57:31;;;;;;;9.18;1.80;;;;;;;19.28;44.63;101431.13;2329720;76;50715;-76
2024/04/23 05:00:33;;;;;;;4.45;1.72;;;;;;;19.30;44.65;101430.45;2296629;76;51522;-77
2024/04/23 05:03:36;;;;;;;5.33;2.05;;;;;;;19.29;44.66;101435.47;2330084;76;50324;-78
2024/04/23 05:06:38;;;;;;;7.60;2.20;;;;;;;19.28;44.74;101434.64;2330074;76;50170;-78
2024/04/23 05:09:41;;;;;;;8.43;2.58;;;;;;;19.30;45.62;101435.82;2288482;76;50126;-77
2024/04/23 05:12:44;;;;;;;17.15;2.42;;;;;;;19.30;45.93;101436.66;2330119;76;51638;-78
2024/04/23 05:15:46;;;;;;;10.45;2.47;;;;;;;19.32;45.89;101435.98;2329951;76;49972;-77
2024/04/23 05:18:48;;;;;;;11.75;2.72;;;;;;;19.34;46.04;101441.17;2288382;76;49439;-78
2024/04/23 05:21:50;;;;;;;9.58;2.33;;;;;;;19.34;46.13;101451.42;2330060;76;52343;-76
2024/04/23 05:24:52;;;;;;;25.60;2.90;;;;;;;19.34;45.95;101444.72;2330002;75;52947;-77
2024/04/23 05:27:55;;;;;;;24.55;2.62;;;;;;;19.36;46.64;101449.38;2296141;76;52214;-77
2024/04/23 05:34:17;;;;;;;16.60;2.62;;;;;;;19.41;47.23;101444.86;2330229;76;22503;-76
2024/04/23 05:37:19;;;;;;;16.00;3.40;;;;;;;19.44;47.31;101443.17;2295513;76;50099;-77
2024/04/23 05:40:21;;;;;;;15.25;2.98;;;;;;;19.44;47.48;101458.44;2296079;76;50809;-76
2024/04/23 05:43:23;;;;;;;25.00;3.67;;;;;;;19.46;48.25;101453.75;2288129;76;51040;-75
2024/04/23 05:46:26;;;;;;;22.85;2.90;;;;;;;19.48;48.18;101448.55;2329695;76;51503;-76
2024/04/23 05:50:05;;;;;;;19.70;3.47;;;;;;;19.49;48.04;101451.55;2295918;76;51330;-77
2024/04/23 05:53:44;;;;;;;19.15;2.87;;;;;;;19.49;47.95;101446.70;2321530;76;50807;-75
2024/04/23 05:56:46;;;;;;;14.58;3.55;;;;;;;19.50;48.22;101456.44;2317941;76;51565;-76
2024/04/23 05:59:48;;;;;;;27.30;3.62;;;;;;;19.48;48.04;101459.80;2305986;76;49559;-75
2024/04/23 06:02:50;;;;;;;24.63;3.70;;;;;;;19.48;47.89;101450.40;2318177;76;50334;-75
2024/04/23 06:05:52;;;;;;;23.83;3.75;;;;;;;19.47;47.76;101468.84;2317813;76;51529;-75
2024/04/23 06:08:55;;;;;;;22.95;3.27;;;;;;;19.46;47.84;101456.44;2305825;76;51093;-75
2024/04/23 06:11:57;;;;;;;16.25;3.22;;;;;;;19.47;48.25;101462.12;2332309;76;51379;-75
2024/04/23 06:14:59;;;;;;;24.85;3.70;;;;;;;19.45;48.49;101454.77;2332170;76;50084;-76
2024/04/23 06:18:01;;;;;;;24.15;3.37;;;;;;;19.46;48.30;101457.78;2318013;76;50428;-76
2024/04/23 06:21:04;;;;;;;20.52;3.35;;;;;;;19.45;48.11;101459.63;2318005;76;50762;-77
2024/04/23 06:24:06;;;;;;;20.50;2.80;;;;;;;19.44;46.75;101453.91;2280469;76;50712;-77
2024/04/23 06:27:08;;;;;;;12.33;2.77;;;;;;;19.44;46.88;101455.76;2280507;76;51567;-77
2024/04/23 06:30:11;;;;;;;13.75;3.00;;;;;;;19.42;46.08;101448.38;2306446;76;51481;-77
2024/04/23 06:33:13;;;;;;;12.63;3.25;;;;;;;19.44;48.53;101457.09;2244849;76;51222;-76
2024/04/23 06:36:16;;;;;;;18.12;4.00;;;;;;;19.44;48.83;101455.25;2304372;76;50595;-77
2024/04/23 06:39:18;;;;;;;13.10;3.85;;;;;;;19.46;49.16;101462.63;2318130;76;50692;-78
2024/04/23 06:42:21;;;;;;;17.02;3.65;;;;;;;19.47;49.25;101455.41;2318353;76;51411;-77
2024/04/23 06:45:24;;;;;;;22.27;4.15;;;;;;;19.47;50.39;101454.07;2318088;76;50353;-78
2024/04/23 06:48:26;;;;;;;17.37;4.15;;;;;;;19.47;50.19;101458.09;2280144;76;51344;-77
2024/04/23 06:51:28;;;;;;;20.52;4.00;;;;;;;19.48;49.93;101467.34;2317928;76;50404;-77
2024/04/23 06:54:30;;;;;;;13.65;3.45;;;;;;;19.48;50.14;101451.23;2318003;76;50703;-78
2024/04/23 06:57:32;;;;;;;15.75;3.47;;;;;;;19.49;49.85;101448.03;2305873;76;49665;-78
2024/04/23 07:00:35;;;;;;;13.83;3.17;;;;;;;19.49;49.73;101448.88;2318326;76;50646;-78
2024/04/23 07:03:37;;;;;;;12.10;3.30;;;;;;;19.50;49.55;101445.70;2318256;76;50142;-78
2024/04/23 07:06:39;;;;;;;19.07;3.33;;;;;;;19.50;49.35;101443.02;2318009;76;50712;-78
2024/04/23 07:09:42;;;;;;;15.40;3.40;;;;;;;19.50;49.08;101449.73;2306220;76;52349;-78
2024/04/23 07:12:44;;;;;;;11.97;3.20;;;;;;;19.50;48.89;101446.54;2306158;76;50204;-78
2024/04/23 07:15:46;;;;;;;16.02;3.37;;;;;;;19.50;48.76;101447.88;2318024;76;51981;-78
2024/04/23 07:18:48;;;;;;;12.82;2.77;;;;;;;19.51;48.69;101447.37;2318163;76;52168;-78
2024/04/23 07:21:50;;;;;;;17.92;2.90;;;;;;;19.52;48.57;101440.98;2306006;76;50530;-78
2024/04/23 07:24:53;;;;;;;9.25;2.50;;;;;;;19.52;48.50;101436.48;2318320;76;50344;-78
2024/04/23 07:27:55;;;;;;;10.30;2.50;;;;;;;19.50;48.40;101428.27;2318211;76;50727;-78
2024/04/23 07:31:00;;;;;;;9.45;3.20;;;;;;;19.49;48.36;101428.73;2318235;76;51552;-77
2024/04/23 07:34:01;;;;;;;10.30;3.00;;;;;;;19.49;48.25;101428.73;2318442;76;22839;-77
2024/04/23 07:37:03;;;;;;;9.43;2.45;;;;;;;19.48;48.28;101424.90;2305700;76;49478;-77
2024/04/23 07:40:06;;;;;;;9.20;2.90;;;;;;;19.49;48.23;101423.37;2280466;76;51725;-77
2024/04/23 07:43:08;;;;;;;6.30;2.70;;;;;;;19.49;48.12;101419.34;2280376;76;50514;-77
2024/04/23 07:46:11;;;;;;;12.45;3.10;;;;;;;19.49;48.15;101415.83;2305707;76;50088;-77
2024/04/23 07:49:13;;;;;;;12.28;3.30;;;;;;;19.51;48.02;101427.23;2332510;75;51317;-77
2024/04/23 07:52:15;;;;;;;14.65;2.83;;;;;;;19.51;47.92;101425.89;2318114;76;51493;-77
2024/04/23 07:55:17;;;;;;;8.18;2.70;;;;;;;19.51;47.94;101416.50;2318017;76;50300;-77
2024/04/23 07:58:20;;;;;;;6.53;2.45;;;;;;;19.50;47.82;101412.16;2306028;76;50383;-77
2024/04/23 08:01:22;;;;;;;12.98;2.65;;;;;;;19.48;47.82;101408.28;2306178;76;52784;-76
2024/04/23 08:04:24;;;;;;;9.45;2.47;;;;;;;19.49;47.74;101406.44;2318217;76;50751;-77
2024/04/23 08:07:27;;;;;;;11.65;2.87;;;;;;;19.48;47.69;101400.23;2317902;76;51517;-77
2024/04/23 08:10:29;;;;;;;7.60;2.30;;;;;;;19.51;47.59;101393.69;2306024;76;50664;-77
2024/04/23 08:13:32;;;;;;;8.15;2.58;;;;;;;19.51;47.52;101381.09;2318177;76;51569;-77
2024/04/23 08:16:34;;;;;;;7.45;2.58;;;;;;;19.53;47.44;101388.99;2317887;76;51531;-78
2024/04/23 08:19:36;;;;;;;6.85;2.40;;;;;;;19.54;47.38;101389.31;2332261;75;51545;-77
2024/04/23 08:22:38;;;;;;;7.25;2.20;;;;;;;19.53;47.31;101387.14;2318108;76;51492;-77
2024/04/23 08:25:41;;;;;;;8.13;2.55;;;;;;;19.57;47.21;101382.25;2305799;76;50972;-77
2024/04/23 08:28:44;;;;;;;10.03;2.72;;;;;;;19.58;47.12;101383.95;2306037;76;50669;-77
2024/04/23 08:31:46;;;;;;;8.28;2.37;;;;;;;19.57;47.07;101379.56;2318144;75;49987;-76
2024/04/23 08:34:48;;;;;;;10.75;2.98;;;;;;;19.57;46.80;101377.75;2305905;76;50151;-77
2024/04/23 08:37:50;;;;;;;5.30;2.30;;;;;;;19.56;46.63;101375.22;2332057;76;51536;-76
2024/04/23 08:40:53;;;;;;;6.00;2.37;;;;;;;19.56;46.39;101375.22;2318108;76;51622;-76
2024/04/23 08:44:01;;;;;;;6.97;2.00;;;;;;;19.58;45.74;101366.50;2318045;76;51507;-76
2024/04/23 08:47:04;;;;;;;7.28;2.17;;;;;;;19.57;45.64;101360.78;2317007;76;50279;-77
2024/04/23 08:50:08;;;;;;;6.87;2.17;;;;;;;19.58;45.77;101361.96;2256122;76;50138;-77
2024/04/23 08:53:10;;;;;;;7.47;2.37;;;;;;;19.59;45.48;101351.55;2318212;76;51610;-77
2024/04/23 08:56:16;;;;;;;8.28;2.37;;;;;;;19.61;45.40;101359.44;2317818;76;50793;-77
2024/04/23 08:59:18;;;;;;;5.12;2.72;;;;;;;19.62;45.46;101346.33;2318227;76;22570;-77
2024/04/23 09:02:30;;;;;;;5.35;2.55;;;;;;;19.63;45.46;101349.37;2306154;76;50428;-76
2024/04/23 09:05:32;;;;;;;4.60;2.10;;;;;;;19.64;45.33;101340.29;2317729;76;51458;-77
2024/04/23 09:08:35;;;;;;;5.40;2.17;;;;;;;19.65;45.36;101344.67;2318169;76;50381;-76
2024/04/23 09:11:37;;;;;;;6.08;2.40;;;;;;;19.66;45.26;101341.47;2317932;75;51612;-77
2024/04/23 09:14:43;;;;;;;5.35;2.20;;;;;;;19.67;45.19;101341.31;2305653;76;52132;-77
2024/04/23 09:17:46;;;;;;;3.58;1.90;;;;;;;19.68;45.25;101321.53;2317862;76;22334;-77
2024/04/23 09:20:48;;;;;;;;;;;;;;;19.71;45.14;101322.52;2312282;76;50786;-77
2024/04/23 09:23:51;;;;;;;6.28;2.25;;;;;;;19.70;45.11;101322.16;2350172;75;49790;-77
2024/04/23 09:26:53;;;;;;;4.70;2.27;;;;;;;19.73;45.19;101320.50;2332006;76;50687;-77
2024/04/23 09:29:55;;;;;;;4.72;1.72;;;;;;;19.74;45.13;101313.27;2318066;76;51445;-77
2024/04/23 09:33:01;;;;;;;3.90;2.15;;;;;;;19.74;45.32;101312.77;2305899;76;50091;-77
2024/04/23 09:36:10;;;;;;;4.40;1.82;;;;;;;19.76;45.32;101305.89;2332170;76;50077;-77
2024/04/23 09:39:16;;;;;;;6.47;2.25;;;;;;;19.75;45.26;101311.73;2318205;76;51567;-77
2024/04/23 09:42:27;;;;;;;4.95;1.65;;;;;;;19.76;45.33;101298.66;2318215;76;51493;-77
2024/04/23 09:45:29;;;;;;;6.28;1.80;;;;;;;19.79;45.10;101300.99;2317972;76;50653;-78
2024/04/23 09:48:35;;;;;;;3.75;1.87;;;;;;;19.80;45.07;101299.14;2306026;76;51022;-78
2024/04/23 09:51:37;;;;;;;5.78;1.82;;;;;;;19.82;45.00;101288.23;2280565;76;51566;-78
2024/04/23 09:54:42;;;;;;;3.98;2.05;;;;;;;19.83;44.98;101287.20;2318268;76;50343;-78
2024/04/23 09:57:44;;;;;;;3.52;1.90;;;;;;;19.84;45.03;101279.50;2305661;76;51251;-78
2024/04/23 10:00:46;;;;;;;5.47;2.05;;;;;;;19.87;44.89;101280.48;2318312;76;51566;-78
2024/04/23 10:03:51;;;;;;;6.90;2.20;;;;;;;19.85;44.93;101273.94;2305938;76;50984;-78
2024/04/23 10:06:53;;;;;;;3.27;1.90;;;;;;;19.86;44.98;101274.28;2305887;76;51108;-78
2024/04/23 10:09:55;;;;;;;2.98;1.85;;;;;;;19.86;44.93;101270.25;2318277;76;50755;-78
2024/04/23 10:12:57;;;;;;;2.10;1.62;;;;;;;19.89;44.96;101273.92;2318277;76;50392;-77
2024/04/23 10:16:14;;;;;;;3.85;1.90;;;;;;;19.87;45.01;101273.26;2305971;76;49584;-78
2024/04/23 10:19:16;;;;;;;4.58;1.80;;;;;;;19.88;45.00;101255.29;2318327;76;50789;-78
2024/04/23 10:22:18;;;;;;;2.87;1.60;;;;;;;19.87;44.92;101260.34;2318406;75;51607;-78
2024/04/23 10:25:21;;;;;;;3.55;1.65;;;;;;;19.87;44.90;101253.63;2318188;76;51574;-78
2024/04/23 10:28:23;;;;;;;2.95;1.67;;;;;;;19.85;44.80;101248.94;2318288;76;50828;-78
2024/04/23 10:31:25;;;;;;;3.05;1.67;;;;;;;19.86;44.85;101246.56;2306152;76;49211;-78
2024/04/23 10:34:29;;;;;;;2.80;1.60;;;;;;;19.87;44.86;101235.66;2318313;76;49942;-78
2024/04/23 10:37:32;;;;;;;4.57;2.23;;;;;;;19.88;44.83;101231.12;2318422;76;50455;-78
2024/04/23 10:40:34;;;;;;;4.83;1.75;;;;;;;19.91;44.75;101229.41;2306128;76;50083;-77
2024/04/23 10:43:36;;;;;;;3.90;1.57;;;;;;;19.90;44.57;101219.70;2318443;76;51526;-77
2024/04/23 10:46:40;;;;;;;3.50;1.60;;;;;;;19.89;44.70;101219.38;2318135;76;50624;-77
2024/04/23 10:49:42;;;;;;;2.87;1.57;;;;;;;19.88;44.64;101217.69;2318292;76;51522;-77
2024/04/23 10:52:45;;;;;;;2.55;1.67;;;;;;;19.88;44.55;101208.29;2318452;76;50350;-77
2024/04/23 10:55:51;;;;;;;4.60;1.70;;;;;;;19.90;44.40;101214.33;2305801;76;49595;-78
2024/04/23 10:59:08;;;;;;;3.12;1.62;;;;;;;19.91;44.58;101206.59;2306032;76;50656;-77
2024/04/23 11:02:11;;;;;;;2.70;1.77;;;;;;;19.92;44.68;101210.97;2318184;75;51546;-77
2024/04/23 11:05:19;;;;;;;2.80;1.67;;;;;;;19.91;44.75;101200.73;2280331;76;49607;-77
2024/04/23 11:08:25;;;;;;;2.27;1.40;;;;;;;19.91;44.66;101199.87;2318251;76;50323;-77
2024/04/23 11:11:27;;;;;;;2.47;1.40;;;;;;;19.92;44.57;101188.13;2318264;76;50328;-77
2024/04/23 11:14:34;;;;;;;4.45;1.70;;;;;;;19.91;44.64;101185.10;2280362;76;50645;-77
2024/04/23 11:17:42;;;;;;;2.90;1.60;;;;;;;19.92;44.42;101176.05;2317946;76;50419;-77
2024/04/23 11:20:44;;;;;;;2.12;1.22;;;;;;;19.93;44.24;101171.82;2304679;76;49854;-78
2024/04/23 11:23:46;;;;;;;2.20;1.42;;;;;;;19.95;44.16;101171.14;2318213;76;51493;-77
2024/04/23 11:26:49;;;;;;;1.92;1.32;;;;;;;19.95;44.10;101164.42;2318009;76;50712;-78
2024/04/23 11:29:51;;;;;;;2.95;1.60;;;;;;;19.95;44.26;101159.56;2306114;76;52747;-77
2024/04/23 11:32:54;;;;;;;2.58;1.50;;;;;;;19.95;44.06;101166.28;2318380;75;50187;-77
2024/04/23 11:35:56;;;;;;;3.27;1.32;;;;;;;19.96;43.88;101153.17;2318168;76;50643;-77
2024/04/23 11:39:06;;;;;;;3.02;1.32;;;;;;;19.96;43.96;101139.73;2306159;76;50494;-78
2024/04/23 11:42:02;;;;;;;2.50;1.40;;;;;;;19.95;43.80;101150.17;2317894;76;22323;-77
2024/04/23 11:45:05;;;;;;;3.08;1.45;;;;;;;19.96;43.83;101147.31;2305843;76;50997;-77
2024/04/23 11:48:07;;;;;;;2.80;1.45;;;;;;;19.96;43.61;101146.45;2279300;75;52522;-77
2024/04/23 11:51:10;;;;;;;1.98;1.55;;;;;;;19.95;43.51;101144.80;2280712;76;50186;-77
2024/04/23 11:54:12;;;;;;;2.25;1.40;;;;;;;19.94;43.51;101142.63;2306077;76;51008;-77
2024/04/23 11:57:15;;;;;;;3.67;1.37;;;;;;;19.91;43.62;101141.64;2318037;76;51519;-77
2024/04/23 12:00:17;;;;;;;2.60;1.30;;;;;;;19.91;43.59;101139.44;2318275;76;50304;-77
2024/04/23 12:03:22;;;;;;;2.47;1.30;;;;;;;19.91;43.33;101136.75;2280507;76;50389;-78
2024/04/23 12:06:24;;;;;;;3.33;1.37;;;;;;;19.92;43.21;101125.02;2318200;76;51483;-77
2024/04/23 12:09:27;;;;;;;2.80;1.45;;;;;;;19.91;43.02;101120.64;2306127;76;49514;-77
2024/04/23 12:12:29;;;;;;;2.75;1.40;;;;;;;19.91;42.86;101117.47;2305846;76;50965;-77
2024/04/23 12:15:33;;;;;;;2.75;1.52;;;;;;;19.91;42.81;101116.61;2318051;76;50368;-77
2024/04/23 12:18:38;;;;;;;1.50;1.20;;;;;;;19.90;42.86;101110.41;2306105;76;49650;-77
2024/04/23 12:21:41;;;;;;;;;;;;;;;19.91;42.74;101109.42;2321199;76;50238;-77
2024/04/23 12:24:44;;;;;;;1.85;1.37;;;;;;;19.89;42.88;101099.88;2318473;76;51542;-77
2024/04/23 12:27:46;;;;;;;3.00;1.62;;;;;;;19.89;42.94;101099.88;2306021;76;49561;-78
2024/04/23 12:30:49;;;;;;;1.95;1.35;;;;;;;19.90;43.04;101098.33;2280521;76;51043;-78
2024/04/23 12:33:58;;;;;;;1.65;1.20;;;;;;;19.89;43.00;101092.64;2318428;76;50195;-78
2024/04/23 12:37:00;;;;;;;2.20;1.60;;;;;;;19.87;42.91;101087.13;2332623;75;50418;-78
2024/04/23 12:40:05;;;;;;;1.45;1.30;;;;;;;19.87;42.80;101083.09;2318393;76;50500;-77
2024/04/23 12:43:14;;;;;;;1.92;1.07;;;;;;;19.86;42.81;101077.37;2281136;76;50971;-78
2024/04/23 12:46:17;;;;;;;2.55;1.30;;;;;;;19.86;42.62;101063.95;2306068;75;50658;-78
2024/04/23 12:49:19;;;;;;;1.30;1.07;;;;;;;19.87;42.53;101057.58;2318310;76;50757;-78
2024/04/23 12:52:22;;;;;;;2.55;1.30;;;;;;;19.88;42.18;101049.84;2306366;76;50961;-80
2024/04/23 12:55:24;;;;;;;2.22;1.55;;;;;;;19.88;42.07;101052.52;2318070;76;51532;-78
2024/04/23 12:58:33;;;;;;;2.40;1.20;;;;;;;19.90;42.06;101051.84;2318522;76;51605;-78
2024/04/23 13:01:30;;;;;;;1.57;1.15;;;;;;;19.89;41.67;101051.02;2317618;75;22349;-78
2024/04/23 13:04:32;;;;;;;1.35;1.20;;;;;;;19.91;43.16;101057.05;2318314;76;50379;-77
2024/04/23 13:07:34;;;;;;;2.20;1.40;;;;;;;19.91;43.04;101048.13;2305971;76;50074;-78
2024/04/23 13:10:36;;;;;;;1.62;1.22;;;;;;;19.90;43.05;101044.61;2318471;76;52419;-78
2024/04/23 13:13:39;;;;;;;2.72;1.22;;;;;;;19.90;42.13;101038.41;2318392;75;50650;-78
2024/04/23 13:16:41;;;;;;;3.08;1.30;;;;;;;19.91;42.54;101039.59;2305821;76;52349;-77
2024/04/23 13:19:43;;;;;;;4.28;1.52;;;;;;;19.90;43.37;101034.39;2318360;76;50635;-77
2024/04/23 13:22:45;;;;;;;2.47;1.40;;;;;;;19.90;43.38;101025.81;2318327;76;50134;-77
2024/04/23 13:25:48;;;;;;;2.00;1.47;;;;;;;19.89;43.46;101024.16;2317904;76;52385;-77
2024/04/23 13:28:50;;;;;;;1.82;1.42;;;;;;;19.89;43.51;101012.59;2318098;76;50337;-77
2024/04/23 13:31:52;;;;;;;1.60;1.40;;;;;;;19.89;43.33;101003.19;2305869;76;51173;-77
2024/04/23 13:34:54;;;;;;;3.02;1.22;;;;;;;19.88;43.19;100998.81;2318201;76;50703;-77
2024/04/23 13:37:56;;;;;;;1.67;1.20;;;;;;;19.90;43.02;100998.13;2317952;76;52484;-77
2024/04/23 13:40:59;;;;;;;1.87;1.25;;;;;;;19.89;43.38;100991.93;2305777;76;50996;-77
2024/04/23 13:44:01;;;;;;;1.10;1.00;;;;;;;19.94;43.29;100986.02;2305969;76;51434;-77
2024/04/23 13:47:04;;;;;;;2.20;1.40;;;;;;;19.94;43.24;100986.02;2317893;76;50332;-76
2024/04/23 13:50:10;;;;;;;1.20;1.10;;;;;;;19.94;43.28;100980.64;2280594;76;50291;-77
2024/04/23 13:53:12;;;;;;;2.15;1.17;;;;;;;19.93;43.37;100981.64;2332295;76;50439;-77
2024/04/23 13:56:14;;;;;;;1.75;1.10;;;;;;;19.92;43.13;100977.30;2305621;76;50164;-77
2024/04/23 13:59:19;;;;;;;1.27;1.10;;;;;;;19.89;43.16;100977.16;2318149;76;51581;-77
2024/04/23 14:02:22;;;;;;;2.72;1.30;;;;;;;19.89;43.07;100983.05;2332535;75;22330;-77
2024/04/23 14:05:24;;;;;;;2.30;1.32;;;;;;;19.90;42.84;100975.30;2305795;76;50928;-77
2024/04/23 14:08:26;;;;;;;1.90;1.37;;;;;;;19.90;42.69;100973.96;2332440;76;51385;-77
2024/04/23 14:11:30;;;;;;;1.92;1.22;;;;;;;19.89;42.36;100973.13;2318072;76;51485;-77
2024/04/23 14:14:32;;;;;;;1.37;1.10;;;;;;;19.88;42.29;100966.08;2306092;76;50680;-77
2024/04/23 14:17:35;;;;;;;1.47;1.20;;;;;;;19.88;42.28;100963.91;2305715;76;50386;-77
2024/04/23 14:20:37;;;;;;;1.30;1.20;;;;;;;19.87;42.29;100956.88;2305977;76;51486;-78